Time;durP1;ratioP1;P1;durP2;ratioP2;P2;SDS_P1;SDS_P2;PMS_P1;PMS_P2;Temp;Humidity;BMP_temperature;BMP_pressure;BME280_temperature;BME280_humidity;BME280_pressure;Samples;Min_cycle;Max_cycle;Signal;HPM_P1;HPM_P2
2023/12/07 00:00:25;;;;;;;19.48;11.40;;;5.80;99.90;;;;;;4864786;29;20041;-71
2023/12/07 00:02:51;;;;;;;19.48;12.05;;;5.70;99.90;;;;;;4881091;29;20037;-73
2023/12/07 00:05:16;;;;;;;16.17;10.27;;;5.60;99.90;;;;;;4881514;29;20061;-73
2023/12/07 00:07:42;;;;;;;14.43;10.82;;;5.70;99.90;;;;;;4881349;29;20041;-73
2023/12/07 00:10:08;;;;;;;14.05;9.95;;;5.70;99.90;;;;;;4864380;29;20260;-73
2023/12/07 00:12:34;;;;;;;16.80;10.98;;;5.60;99.90;;;;;;4881478;29;20036;-74
2023/12/07 00:15:00;;;;;;;17.67;11.45;;;5.60;99.90;;;;;;4864370;29;20061;-74
2023/12/07 00:17:25;;;;;;;21.13;12.43;;;5.60;99.90;;;;;;4881473;29;20044;-73
2023/12/07 00:19:53;;;;;;;17.13;10.88;;;5.50;99.90;;;;;;4881446;29;20059;-73
2023/12/07 00:22:20;;;;;;;18.13;12.05;;;5.50;99.90;;;;;;4881061;29;20029;-72
2023/12/07 00:24:45;;;;;;;17.27;11.50;;;5.50;99.90;;;;;;4881328;29;20478;-74
2023/12/07 00:27:11;;;;;;;15.23;10.73;;;5.60;99.90;;;;;;4881300;29;20045;-73
2023/12/07 00:29:37;;;;;;;17.23;11.55;;;5.60;99.90;;;;;;4880987;29;20092;-74
2023/12/07 00:32:04;;;;;;;17.20;10.93;;;5.60;99.90;;;;;;4881197;29;20044;-73
2023/12/07 00:34:30;;;;;;;19.17;12.80;;;5.60;99.90;;;;;;4880737;29;20067;-73
2023/12/07 00:36:55;;;;;;;15.15;11.15;;;5.60;99.90;;;;;;4881205;29;20033;-74
2023/12/07 00:39:21;;;;;;;16.42;10.98;;;5.60;99.90;;;;;;4848984;29;20033;-74
2023/12/07 00:41:47;;;;;;;15.65;10.88;;;5.70;99.90;;;;;;4863308;29;20048;-73
2023/12/07 00:44:14;;;;;;;17.08;10.90;;;5.60;99.90;;;;;;4881415;29;20037;-71
2023/12/07 00:46:40;;;;;;;16.80;10.13;;;5.60;99.90;;;;;;4880999;29;20115;-72
2023/12/07 00:49:06;;;;;;;14.93;9.32;;;5.60;99.90;;;;;;4880837;29;20066;-74
2023/12/07 00:51:31;;;;;;;16.35;9.77;;;5.70;99.90;;;;;;4881799;29;20069;-72
2023/12/07 00:53:58;;;;;;;16.98;10.43;;;5.70;99.90;;;;;;4881897;29;20522;-72
2023/12/07 00:56:24;;;;;;;15.80;9.90;;;5.60;99.90;;;;;;4864835;29;20037;-73
2023/12/07 00:58:50;;;;;;;15.20;10.15;;;5.50;99.90;;;;;;4881685;29;20033;-73
2023/12/07 01:01:15;;;;;;;13.48;9.35;;;5.50;99.90;;;;;;4864560;29;20037;-72
2023/12/07 01:03:41;;;;;;;18.98;9.35;;;5.50;99.90;;;;;;4864435;29;20080;-73
2023/12/07 01:06:07;;;;;;;12.38;8.60;;;5.50;99.90;;;;;;4864576;29;20045;-73
2023/12/07 01:08:33;;;;;;;13.35;9.38;;;5.60;99.90;;;;;;4863762;29;20043;-74
2023/12/07 01:10:59;;;;;;;12.82;9.20;;;5.60;99.90;;;;;;4863396;29;20041;-73
2023/12/07 01:13:24;;;;;;;12.15;9.07;;;5.60;99.90;;;;;;4863943;29;20108;-73
2023/12/07 01:15:50;;;;;;;13.20;9.25;;;5.60;99.90;;;;;;4880166;29;20435;-73
2023/12/07 01:18:16;;;;;;;16.05;9.00;;;5.60;99.90;;;;;;4879883;29;20044;-73
2023/12/07 01:20:42;;;;;;;14.75;9.63;;;5.60;99.90;;;;;;4880028;29;20028;-74
2023/12/07 01:23:10;;;;;;;16.60;9.80;;;5.60;99.90;;;;;;4880346;29;20060;-73
2023/12/07 01:25:36;;;;;;;11.88;8.60;;;5.60;99.90;;;;;;4863740;29;20530;-73
2023/12/07 01:28:02;;;;;;;13.15;9.27;;;5.60;99.90;;;;;;4879978;29;20112;-73
2023/12/07 01:30:27;;;;;;;15.05;9.80;;;5.60;99.90;;;;;;4879934;29;20040;-73
2023/12/07 01:32:53;;;;;;;13.48;9.43;;;5.50;99.90;;;;;;4879640;29;20120;-73
2023/12/07 01:35:19;;;;;;;15.15;10.18;;;5.40;99.90;;;;;;4879420;29;20045;-73
2023/12/07 01:37:45;;;;;;;16.15;9.82;;;5.30;99.90;;;;;;4879531;29;20084;-73
2023/12/07 01:40:10;;;;;;;14.75;9.43;;;5.30;99.90;;;;;;4879928;29;20123;-73
2023/12/07 01:42:37;;;;;;;17.38;9.85;;;5.30;99.90;;;;;;4879491;29;20402;-74
2023/12/07 01:45:05;;;;;;;14.98;9.10;;;5.40;99.90;;;;;;4862880;29;20077;-73
2023/12/07 01:47:31;;;;;;;10.20;8.48;;;5.40;99.90;;;;;;4879465;29;20435;-73
2023/12/07 01:49:58;;;;;;;23.02;10.00;;;5.40;99.90;;;;;;4862779;29;20036;-73
2023/12/07 01:52:26;;;;;;;12.23;9.40;;;5.40;99.90;;;;;;4879670;29;20439;-73
2023/12/07 01:54:52;;;;;;;13.10;8.98;;;5.40;99.90;;;;;;4879638;29;20060;-73
2023/12/07 01:57:19;;;;;;;13.52;9.50;;;5.30;99.90;;;;;;4879728;29;20047;-74
2023/12/07 01:59:45;;;;;;;14.70;8.93;;;5.30;99.90;;;;;;4879327;29;20474;-74
2023/12/07 02:02:10;;;;;;;11.60;8.70;;;5.30;99.90;;;;;;4879536;29;20120;-74
2023/12/07 02:04:36;;;;;;;14.20;9.35;;;5.30;99.90;;;;;;4862726;29;20148;-73
2023/12/07 02:07:04;;;;;;;11.07;8.90;;;5.30;99.90;;;;;;4863183;29;20036;-74
2023/12/07 02:09:30;;;;;;;9.93;8.30;;;5.30;99.90;;;;;;4879508;29;20029;-74
2023/12/07 02:11:55;;;;;;;12.73;9.02;;;5.20;99.90;;;;;;4879273;29;20497;-74
2023/12/07 02:14:21;;;;;;;12.63;9.35;;;5.20;99.90;;;;;;4879544;29;20489;-74
2023/12/07 02:17:20;;;;;;;13.98;9.82;;;5.10;99.90;;;;;;4878777;29;20029;-74
2023/12/07 02:20:06;;;;;;;15.25;9.10;;;4.90;99.90;;;;;;4864892;29;20060;-74
2023/12/07 02:22:47;;;;;;;13.80;9.30;;;4.90;99.90;;;;;;4862772;29;20079;-74
2023/12/07 02:25:14;;;;;;;14.55;9.18;;;4.90;99.90;;;;;;4879419;29;20025;-73
2023/12/07 02:27:47;;;;;;;15.35;8.73;;;5.00;99.90;;;;;;4878896;29;20112;-74
2023/12/07 02:30:13;;;;;;;16.70;10.13;;;5.00;99.90;;;;;;4878863;29;20036;-73
2023/12/07 02:32:40;;;;;;;15.48;9.63;;;5.10;99.90;;;;;;4878799;29;20029;-74
2023/12/07 02:35:08;;;;;;;29.85;11.13;;;5.10;99.90;;;;;;4878560;29;20033;-74
2023/12/07 02:37:37;;;;;;;24.48;11.13;;;5.20;99.90;;;;;;4861904;29;20465;-74
2023/12/07 02:40:09;;;;;;;15.95;10.63;;;5.10;99.90;;;;;;4878779;29;20078;-74
2023/12/07 02:42:36;;;;;;;13.23;9.30;;;5.10;99.90;;;;;;4879108;29;20041;-74
2023/12/07 02:45:03;;;;;;;54.65;10.85;;;5.10;99.90;;;;;;4878962;29;20037;-73
2023/12/07 02:47:29;;;;;;;19.25;11.60;;;5.10;99.90;;;;;;4862027;29;20033;-74
2023/12/07 02:49:54;;;;;;;23.88;10.60;;;5.00;99.90;;;;;;4878384;29;20474;-74
2023/12/07 02:52:20;;;;;;;12.98;9.07;;;5.10;99.90;;;;;;4862034;29;20033;-74
2023/12/07 02:54:45;;;;;;;14.27;8.90;;;5.10;99.90;;;;;;4878279;29;20049;-74
2023/12/07 02:57:11;;;;;;;15.30;8.55;;;5.10;99.90;;;;;;4878566;29;20053;-75
2023/12/07 02:59:37;;;;;;;14.07;8.75;;;5.20;99.90;;;;;;4878949;29;20033;-75
2023/12/07 03:02:03;;;;;;;12.82;8.02;;;5.20;99.90;;;;;;4878234;29;20045;-75
2023/12/07 03:04:28;;;;;;;15.63;9.60;;;5.30;99.90;;;;;;4863349;29;20061;-74
2023/12/07 03:06:54;;;;;;;38.45;12.77;;;5.30;99.90;;;;;;4865544;29;20210;-75
2023/12/07 03:09:20;;;;;;;18.98;11.85;;;5.20;99.90;;;;;;4882445;29;20450;-75
2023/12/07 03:11:45;;;;;;;47.85;12.00;;;5.10;99.90;;;;;;4881942;29;20033;-73
2023/12/07 03:14:11;;;;;;;14.80;10.10;;;5.00;99.90;;;;;;4881870;29;20104;-73
2023/12/07 03:16:38;;;;;;;25.77;10.98;;;5.00;99.90;;;;;;4865096;29;20398;-73
2023/12/07 03:19:04;;;;;;;16.63;10.30;;;5.00;99.90;;;;;;4882564;29;20069;-74
2023/12/07 03:21:29;;;;;;;12.65;9.18;;;5.00;99.90;;;;;;4882298;29;20029;-73
2023/12/07 03:23:55;;;;;;;16.35;10.48;;;5.10;99.90;;;;;;4865649;29;20056;-73
2023/12/07 03:26:21;;;;;;;13.45;9.55;;;5.10;99.90;;;;;;4882337;29;20101;-74
2023/12/07 03:28:46;;;;;;;18.08;11.65;;;5.10;99.90;;;;;;4881981;29;20095;-74
2023/12/07 03:31:12;;;;;;;17.80;10.55;;;5.00;99.90;;;;;;4882114;29;20037;-74
2023/12/07 03:33:38;;;;;;;16.52;10.25;;;5.00;99.90;;;;;;4881863;29;20037;-74
2023/12/07 03:36:04;;;;;;;13.95;9.10;;;5.00;99.90;;;;;;4881856;29;20127;-73
2023/12/07 03:38:30;;;;;;;15.70;10.02;;;5.10;99.90;;;;;;4881697;29;20048;-74
2023/12/07 03:40:55;;;;;;;14.15;10.30;;;5.10;99.90;;;;;;4882532;29;20029;-73
2023/12/07 03:43:21;;;;;;;13.25;10.10;;;5.10;99.90;;;;;;4881745;29;20037;-73
2023/12/07 03:45:47;;;;;;;12.00;9.10;;;5.20;99.90;;;;;;4881947;29;20053;-73
2023/12/07 03:48:13;;;;;;;16.23;10.48;;;5.20;99.90;;;;;;4865173;29;20045;-73
2023/12/07 03:50:38;;;;;;;13.32;10.13;;;5.20;99.90;;;;;;4881732;29;20097;-73
2023/12/07 03:53:04;;;;;;;13.27;10.10;;;5.20;99.90;;;;;;4881685;29;20025;-73
2023/12/07 03:55:29;;;;;;;14.20;10.25;;;5.20;99.90;;;;;;4864756;29;20069;-73
2023/12/07 03:57:55;;;;;;;16.00;10.55;;;5.30;99.90;;;;;;4864791;29;20041;-73
2023/12/07 04:00:22;;;;;;;15.77;10.75;;;5.30;99.90;;;;;;4865069;29;20116;-73
2023/12/07 04:02:47;;;;;;;14.63;11.05;;;5.30;99.90;;;;;;4864591;29;20410;-73
2023/12/07 04:05:14;;;;;;;15.45;10.82;;;5.30;99.90;;;;;;4881161;29;20077;-74
2023/12/07 04:07:39;;;;;;;16.75;10.55;;;5.30;99.90;;;;;;4881349;29;20146;-73
2023/12/07 04:10:06;;;;;;;14.65;10.75;;;5.30;99.90;;;;;;4881423;29;20051;-74
2023/12/07 04:12:32;;;;;;;15.32;10.80;;;5.30;99.90;;;;;;4881151;29;20064;-73
2023/12/07 04:14:57;;;;;;;13.70;10.95;;;5.40;99.90;;;;;;4881054;29;20041;-73
2023/12/07 04:17:23;;;;;;;13.10;10.25;;;5.40;99.90;;;;;;4864581;29;20029;-74
2023/12/07 04:19:48;;;;;;;14.30;10.20;;;5.40;99.90;;;;;;4881146;29;20504;-73
2023/12/07 04:22:14;;;;;;;15.27;11.20;;;5.40;99.90;;;;;;4881537;29;20123;-73
2023/12/07 04:24:40;;;;;;;14.40;11.57;;;5.40;99.90;;;;;;4864646;29;20037;-74
2023/12/07 04:27:05;;;;;;;13.60;10.25;;;5.40;99.90;;;;;;4880980;29;20033;-73
2023/12/07 04:29:31;;;;;;;17.30;11.43;;;5.50;99.90;;;;;;4848817;29;20037;-73
2023/12/07 04:31:57;;;;;;;17.02;11.82;;;5.50;99.90;;;;;;4880909;29;20029;-73
2023/12/07 04:34:22;;;;;;;17.80;12.45;;;5.40;99.90;;;;;;4880348;29;20037;-73
2023/12/07 04:36:49;;;;;;;19.73;13.52;;;5.30;99.90;;;;;;4880967;29;20033;-74
2023/12/07 04:39:14;;;;;;;19.38;13.70;;;5.20;99.90;;;;;;4880744;29;20034;-73
2023/12/07 04:41:40;;;;;;;20.42;13.75;;;5.20;99.90;;;;;;4864028;29;20112;-73
2023/12/07 04:44:06;;;;;;;21.33;14.05;;;5.20;99.90;;;;;;4880711;29;20025;-73
2023/12/07 04:46:31;;;;;;;23.98;13.98;;;5.10;99.90;;;;;;4880352;29;20052;-74
2023/12/07 04:48:57;;;;;;;77.03;15.50;;;5.00;99.90;;;;;;4880386;29;20100;-73
2023/12/07 04:51:22;;;;;;;47.92;15.02;;;4.90;99.90;;;;;;4880531;29;20040;-73
2023/12/07 04:53:48;;;;;;;30.10;15.57;;;4.90;99.90;;;;;;4880881;29;20064;-73
2023/12/07 04:56:14;;;;;;;25.13;14.80;;;4.80;99.90;;;;;;4880213;29;20048;-73
2023/12/07 04:58:39;;;;;;;92.60;16.10;;;4.80;99.90;;;;;;4880899;29;20039;-74
2023/12/07 05:01:05;;;;;;;41.38;15.80;;;4.80;99.90;;;;;;4880572;29;20116;-74
2023/12/07 05:03:31;;;;;;;68.32;15.45;;;4.70;99.90;;;;;;4879809;29;20374;-73
2023/12/07 05:05:57;;;;;;;31.23;15.27;;;4.70;99.90;;;;;;4880855;29;20041;-73
2023/12/07 05:08:23;;;;;;;51.67;15.13;;;4.70;99.90;;;;;;4880414;29;20117;-73
2023/12/07 05:10:48;;;;;;;37.25;13.45;;;4.60;99.90;;;;;;4880162;29;20108;-73
2023/12/07 05:13:14;;;;;;;22.90;14.07;;;4.60;99.90;;;;;;4880239;29;20029;-73
2023/12/07 05:15:40;;;;;;;24.05;12.82;;;4.70;99.90;;;;;;4879956;29;20041;-74
2023/12/07 05:18:05;;;;;;;41.65;13.40;;;4.60;99.90;;;;;;4863103;29;20142;-73
2023/12/07 05:20:31;;;;;;;78.43;15.23;;;4.70;99.90;;;;;;4880208;29;20469;-72
2023/12/07 05:22:56;;;;;;;23.10;14.20;;;4.60;99.90;;;;;;4879707;29;20416;-74
2023/12/07 05:25:22;;;;;;;25.33;13.40;;;4.60;99.90;;;;;;4879842;29;20041;-73
2023/12/07 05:27:48;;;;;;;34.38;14.00;;;4.60;99.90;;;;;;4879080;29;20037;-73
2023/12/07 05:30:14;;;;;;;24.08;13.45;;;4.50;99.90;;;;;;4879961;29;20037;-73
2023/12/07 05:32:40;;;;;;;48.13;13.65;;;4.50;99.90;;;;;;4879501;29;20033;-73
2023/12/07 05:35:06;;;;;;;35.13;12.35;;;4.50;99.90;;;;;;4879676;29;20109;-73
2023/12/07 05:37:32;;;;;;;20.42;12.35;;;4.50;99.90;;;;;;4879618;29;20092;-73
2023/12/07 05:39:58;;;;;;;23.33;12.27;;;4.50;99.90;;;;;;4879570;29;20478;-73
2023/12/07 05:42:23;;;;;;;35.65;13.10;;;4.50;99.90;;;;;;4862871;29;20124;-73
2023/12/07 05:44:49;;;;;;;53.42;14.07;;;4.50;99.90;;;;;;4879793;29;20124;-74
2023/12/07 05:47:14;;;;;;;91.13;12.80;;;4.50;99.90;;;;;;4879957;29;20033;-73
2023/12/07 05:49:40;;;;;;;26.65;13.48;;;4.40;99.90;;;;;;4879502;29;20037;-74
2023/12/07 05:52:06;;;;;;;20.42;12.38;;;4.30;99.90;;;;;;4879480;29;20415;-74
2023/12/07 05:54:31;;;;;;;35.05;12.77;;;4.30;99.90;;;;;;4862661;29;20049;-73
2023/12/07 05:56:57;;;;;;;24.27;13.25;;;4.30;99.90;;;;;;4879362;29;20474;-73
2023/12/07 05:59:22;;;;;;;110.40;15.18;;;4.30;99.90;;;;;;4879821;29;20040;-73
2023/12/07 06:01:51;;;;;;;78.35;14.13;;;4.30;99.90;;;;;;4863615;29;20178;-73
2023/12/07 06:04:17;;;;;;;43.35;12.55;;;4.20;99.90;;;;;;4879501;29;20072;-73
2023/12/07 06:06:43;;;;;;;55.03;12.80;;;4.20;99.90;;;;;;4879749;29;20037;-73
2023/12/07 06:09:08;;;;;;;38.88;14.23;;;4.30;99.90;;;;;;4879929;29;20363;-73
2023/12/07 06:11:34;;;;;;;21.48;13.27;;;4.20;99.90;;;;;;4879606;29;20033;-73
2023/12/07 06:14:00;;;;;;;79.97;13.95;;;4.30;99.90;;;;;;4862844;29;20033;-73
2023/12/07 06:16:26;;;;;;;52.65;14.90;;;4.30;99.90;;;;;;4879229;29;20041;-73
2023/12/07 06:18:52;;;;;;;33.38;13.38;;;4.30;99.90;;;;;;4862745;29;20044;-74
2023/12/07 06:21:17;;;;;;;69.20;14.32;;;4.30;99.90;;;;;;4879770;29;20033;-74
2023/12/07 06:23:46;;;;;;;48.53;14.00;;;4.20;99.90;;;;;;4879098;29;20184;-74
2023/12/07 06:26:11;;;;;;;58.85;14.80;;;4.20;99.90;;;;;;4880008;29;20037;-74
2023/12/07 06:28:37;;;;;;;41.03;14.75;;;4.20;99.90;;;;;;4863086;29;20458;-74
2023/12/07 06:31:07;;;;;;;29.38;15.10;;;4.20;99.90;;;;;;4879506;29;20037;-74
2023/12/07 06:33:33;;;;;;;188.95;16.27;;;4.20;99.90;;;;;;4879614;29;20069;-74
2023/12/07 06:35:58;;;;;;;34.45;14.82;;;4.10;99.90;;;;;;4862691;29;20076;-74
2023/12/07 06:38:24;;;;;;;20.88;13.73;;;4.10;99.90;;;;;;4878438;29;20040;-73
2023/12/07 06:40:49;;;;;;;36.95;13.50;;;4.10;99.90;;;;;;4879113;29;20033;-74
2023/12/07 06:43:15;;;;;;;53.33;13.45;;;4.10;99.90;;;;;;4879648;29;20072;-73
2023/12/07 06:45:41;;;;;;;31.75;13.85;;;4.00;99.90;;;;;;4879330;29;20073;-73
2023/12/07 06:48:06;;;;;;;36.65;13.27;;;3.90;99.90;;;;;;4879211;29;20037;-72
2023/12/07 06:50:32;;;;;;;31.23;12.57;;;3.90;99.90;;;;;;4879486;29;20037;-72
2023/12/07 06:52:57;;;;;;;48.05;12.73;;;3.90;99.90;;;;;;4879460;29;20128;-72
2023/12/07 06:55:23;;;;;;;18.15;12.07;;;3.90;99.90;;;;;;4879288;29;20484;-72
2023/12/07 06:57:48;;;;;;;24.63;13.32;;;3.90;99.90;;;;;;4878799;29;20029;-72
2023/12/07 07:00:14;;;;;;;24.77;14.05;;;3.90;99.90;;;;;;4862374;29;20057;-72
2023/12/07 07:02:40;;;;;;;24.05;13.15;;;3.90;99.90;;;;;;4879240;29;20033;-72
2023/12/07 07:05:06;;;;;;;19.05;12.70;;;3.90;99.90;;;;;;4878609;29;20092;-73
2023/12/07 07:07:32;;;;;;;17.40;13.07;;;3.90;99.90;;;;;;4862611;29;20074;-74
2023/12/07 07:09:59;;;;;;;18.92;13.10;;;4.00;99.90;;;;;;4879146;29;20032;-75
2023/12/07 07:12:24;;;;;;;34.75;11.63;;;3.90;99.90;;;;;;4879592;29;20041;-75
2023/12/07 07:14:50;;;;;;;78.82;13.60;;;4.00;99.90;;;;;;4878984;29;20089;-77
2023/12/07 07:17:16;;;;;;;23.05;11.13;;;4.00;99.90;;;;;;4862266;29;20466;-78
2023/12/07 07:19:41;;;;;;;28.13;11.65;;;4.00;99.90;;;;;;4879146;29;20501;-81
2023/12/07 07:22:09;;;;;;;94.60;12.50;;;4.10;99.90;;;;;;4862917;29;20411;-81
2023/12/07 07:24:34;;;;;;;37.33;12.20;;;4.20;99.90;;;;;;4878913;29;20465;-80
2023/12/07 07:27:00;;;;;;;117.30;13.90;;;4.20;99.90;;;;;;4862108;29;20112;-80
2023/12/07 07:29:27;;;;;;;23.42;12.23;;;4.30;99.90;;;;;;4862809;29;20451;-78
2023/12/07 07:31:53;;;;;;;43.10;12.25;;;4.30;99.90;;;;;;4879080;29;20036;-77
2023/12/07 07:34:18;;;;;;;22.52;12.57;;;4.40;99.90;;;;;;4847003;29;20355;-80
2023/12/07 07:36:44;;;;;;;30.90;13.13;;;4.50;99.90;;;;;;4862918;29;20041;-79
2023/12/07 07:39:11;;;;;;;16.08;11.82;;;4.60;99.90;;;;;;4862818;29;20075;-78
2023/12/07 07:41:36;;;;;;;16.15;11.40;;;4.60;99.90;;;;;;4861950;29;20109;-81
2023/12/07 07:44:02;;;;;;;37.28;12.38;;;4.60;99.90;;;;;;4879051;29;20147;-81
2023/12/07 07:46:28;;;;;;;75.82;12.57;;;4.70;99.90;;;;;;4862504;29;20056;-82
2023/12/07 07:48:54;;;;;;;20.83;12.48;;;4.70;99.90;;;;;;4862221;29;20411;-81
2023/12/07 07:51:19;;;;;;;19.85;13.02;;;4.70;99.90;;;;;;4864487;29;20096;-82
2023/12/07 07:53:45;;;;;;;30.90;12.73;;;4.70;99.90;;;;;;4865871;29;20047;-81
2023/12/07 07:56:10;;;;;;;20.17;12.95;;;4.70;99.90;;;;;;4865234;29;20045;-80
2023/12/07 07:58:37;;;;;;;46.20;13.02;;;4.70;99.90;;;;;;4865662;29;20415;-77
2023/12/07 08:01:03;;;;;;;105.93;13.75;;;4.70;99.90;;;;;;4881756;29;20029;-81
2023/12/07 08:03:28;;;;;;;57.33;13.55;;;4.60;99.90;;;;;;4865054;29;20343;-84
2023/12/07 08:05:54;;;;;;;34.45;12.52;;;4.50;99.90;;;;;;4881852;29;20113;-80
2023/12/07 08:08:21;;;;;;;36.28;12.60;;;4.60;99.90;;;;;;4864547;29;20041;-83
2023/12/07 08:10:46;;;;;;;31.02;12.43;;;4.50;99.90;;;;;;4881515;29;20101;-81
2023/12/07 08:13:12;;;;;;;15.55;12.30;;;4.60;99.90;;;;;;4881221;29;20033;-84
2023/12/07 08:15:38;;;;;;;34.97;11.88;;;4.60;99.90;;;;;;4864602;29;20041;-85
2023/12/07 08:18:05;;;;;;;17.55;12.30;;;4.60;99.90;;;;;;4881978;29;20036;-79
2023/12/07 08:20:30;;;;;;;40.08;14.43;;;4.70;99.90;;;;;;4881817;29;20053;-87
2023/12/07 08:22:56;;;;;;;22.48;13.65;;;4.80;99.90;;;;;;4881724;29;20073;-85
2023/12/07 08:25:22;;;;;;;28.60;13.63;;;4.80;99.90;;;;;;4864982;29;20060;-86
2023/12/07 08:27:48;;;;;;;59.63;13.98;;;4.80;99.90;;;;;;4864691;29;20507;-83
2023/12/07 08:30:13;;;;;;;51.35;14.48;;;4.80;99.90;;;;;;4881438;29;20033;-76
2023/12/07 08:32:39;;;;;;;44.92;12.93;;;4.70;99.90;;;;;;4864276;29;20037;-77
2023/12/07 08:35:06;;;;;;;20.55;13.15;;;4.50;99.90;;;;;;4864181;29;20040;-78
2023/12/07 08:37:37;;;;;;;51.55;13.50;;;4.50;99.90;;;;;;4864166;29;20076;-81
2023/12/07 08:40:03;;;;;;;27.92;12.18;;;4.50;99.90;;;;;;4865002;29;20041;-81
2023/12/07 08:42:30;;;;;;;38.78;15.02;;;4.50;99.90;;;;;;4864759;29;20048;-77
2023/12/07 08:44:57;;;;;;;30.50;14.43;;;4.50;99.90;;;;;;4865112;29;20128;-77
2023/12/07 08:47:22;;;;;;;22.40;13.70;;;4.50;99.90;;;;;;4880963;29;20086;-76
2023/12/07 08:49:48;;;;;;;20.30;12.85;;;4.50;99.90;;;;;;4864837;29;20407;-81
2023/12/07 08:52:14;;;;;;;22.90;13.77;;;4.40;99.90;;;;;;4864252;29;20136;-80
2023/12/07 08:54:39;;;;;;;75.95;16.73;;;4.50;99.90;;;;;;4880523;29;20041;-77
2023/12/07 08:57:05;;;;;;;25.05;16.23;;;4.50;99.90;;;;;;4864281;29;20086;-82
2023/12/07 08:59:30;;;;;;;29.73;17.02;;;4.50;99.90;;;;;;4881021;29;20085;-82
2023/12/07 09:01:56;;;;;;;44.53;16.85;;;4.40;99.90;;;;;;4880651;29;20452;-81
2023/12/07 09:04:22;;;;;;;37.72;16.60;;;4.40;99.90;;;;;;4880724;29;20090;-80
2023/12/07 09:06:48;;;;;;;29.45;16.45;;;4.40;99.90;;;;;;4880550;29;20029;-81
2023/12/07 09:09:13;;;;;;;39.58;17.30;;;4.40;99.90;;;;;;4880866;29;20029;-80
2023/12/07 09:11:39;;;;;;;31.63;15.82;;;4.40;99.90;;;;;;4881278;29;20576;-79
2023/12/07 09:14:04;;;;;;;30.33;15.57;;;4.40;99.90;;;;;;4864083;29;20489;-81
2023/12/07 09:16:30;;;;;;;32.55;16.02;;;4.40;99.90;;;;;;4881831;29;20374;-80
2023/12/07 09:18:56;;;;;;;36.22;17.05;;;4.40;99.90;;;;;;4867256;29;20037;-76
2023/12/07 09:21:22;;;;;;;26.13;15.40;;;4.40;99.90;;;;;;4882317;29;20037;-80
2023/12/07 09:23:48;;;;;;;33.42;15.02;;;4.40;99.90;;;;;;4848726;29;20052;-80
2023/12/07 09:26:13;;;;;;;24.95;14.52;;;4.40;99.90;;;;;;4880640;29;20037;-79
2023/12/07 09:28:39;;;;;;;23.75;14.25;;;4.40;99.90;;;;;;4848987;29;20037;-79
2023/12/07 09:31:06;;;;;;;35.40;14.20;;;4.40;99.90;;;;;;4864185;29;20474;-79
2023/12/07 09:33:31;;;;;;;23.42;14.45;;;4.40;99.90;;;;;;4863616;29;20041;-78
2023/12/07 09:35:57;;;;;;;23.55;14.85;;;4.40;99.90;;;;;;4880082;29;20090;-77
2023/12/07 09:38:23;;;;;;;30.63;14.60;;;4.40;99.90;;;;;;4863403;29;20033;-79
2023/12/07 09:40:53;;;;;;;35.75;14.18;;;4.40;99.90;;;;;;4863144;29;20061;-79
2023/12/07 09:43:18;;;;;;;33.00;12.90;;;4.40;99.90;;;;;;4880314;29;20060;-77
2023/12/07 09:45:45;;;;;;;18.75;12.52;;;4.30;99.90;;;;;;4848156;29;20080;-79
2023/12/07 09:48:10;;;;;;;17.58;11.73;;;4.20;99.90;;;;;;4880051;29;20029;-82
2023/12/07 09:50:37;;;;;;;24.67;10.57;;;4.20;99.90;;;;;;4879898;29;20033;-78
2023/12/07 09:53:02;;;;;;;13.32;10.00;;;4.20;99.90;;;;;;4879649;29;20115;-78
2023/12/07 09:55:28;;;;;;;15.85;9.95;;;4.30;99.90;;;;;;4879531;29;20128;-82
2023/12/07 09:57:56;;;;;;;29.25;9.95;;;4.30;99.90;;;;;;4847799;29;20037;-82
2023/12/07 10:00:22;;;;;;;16.08;8.90;;;4.20;99.90;;;;;;4879544;29;20036;-84
2023/12/07 10:02:48;;;;;;;18.60;9.25;;;4.10;99.90;;;;;;4862661;29;20041;-82
2023/12/07 10:05:18;;;;;;;26.13;10.32;;;4.10;99.90;;;;;;4847274;29;20123;-83
2023/12/07 10:07:48;;;;;;;15.90;9.68;;;4.10;99.90;;;;;;4879973;29;20141;-81
2023/12/07 10:10:15;;;;;;;15.45;10.05;;;4.00;99.90;;;;;;4879781;29;20104;-83
2023/12/07 10:12:48;;;;;;;14.85;9.73;;;4.00;99.90;;;;;;4879374;29;20029;-80
2023/12/07 10:15:18;;;;;;;18.92;9.98;;;4.10;99.90;;;;;;4879284;29;20039;-82
2023/12/07 10:17:56;;;;;;;17.20;9.75;;;4.10;99.90;;;;;;4862207;29;20124;-82
2023/12/07 10:20:23;;;;;;;15.43;9.77;;;4.10;99.90;;;;;;4862839;29;20374;-82
2023/12/07 10:23:04;;;;;;;15.07;9.88;;;4.10;99.90;;;;;;4862692;29;20152;-82
2023/12/07 10:25:37;;;;;;;15.38;10.00;;;4.10;99.90;;;;;;4862588;29;20070;-80
2023/12/07 10:28:06;;;;;;;16.45;10.85;;;4.10;99.90;;;;;;4879602;29;20411;-81
2023/12/07 10:30:32;;;;;;;21.40;11.40;;;4.10;99.90;;;;;;4879866;29;20128;-80
2023/12/07 10:32:58;;;;;;;16.90;11.05;;;4.10;99.90;;;;;;4862484;29;20032;-79
2023/12/07 10:35:25;;;;;;;16.30;10.98;;;4.10;99.90;;;;;;4862038;29;20554;-77
2023/12/07 10:37:51;;;;;;;22.55;11.60;;;4.20;99.90;;;;;;4862581;29;20116;-80
2023/12/07 10:40:20;;;;;;;19.85;11.63;;;4.30;99.90;;;;;;4862334;29;20082;-81
2023/12/07 10:42:48;;;;;;;22.92;12.38;;;4.30;99.90;;;;;;4862059;29;20029;-80
2023/12/07 10:45:18;;;;;;;21.08;11.63;;;4.30;99.90;;;;;;4861975;29;20041;-81
2023/12/07 10:47:44;;;;;;;19.63;12.55;;;4.40;99.90;;;;;;4878524;29;20030;-79
2023/12/07 10:50:13;;;;;;;22.67;12.75;;;4.40;99.90;;;;;;4862513;29;20101;-80
2023/12/07 10:52:51;;;;;;;22.80;13.65;;;4.30;99.90;;;;;;4878896;29;20060;-80
2023/12/07 10:55:20;;;;;;;22.95;13.23;;;4.30;99.90;;;;;;4878944;29;20047;-82
2023/12/07 10:57:47;;;;;;;25.05;15.13;;;4.30;99.90;;;;;;4878963;29;20352;-83
2023/12/07 11:00:13;;;;;;;27.75;13.90;;;4.40;99.90;;;;;;4862246;29;20136;-83
2023/12/07 11:02:41;;;;;;;27.08;13.75;;;4.40;99.90;;;;;;4862023;29;20120;-82
2023/12/07 11:05:07;;;;;;;24.58;13.80;;;4.40;99.90;;;;;;4878192;29;20143;-81
2023/12/07 11:07:55;;;;;;;27.52;14.50;;;4.40;99.90;;;;;;4878624;29;20021;-80
2023/12/07 11:10:30;;;;;;;26.95;13.50;;;4.30;99.90;;;;;;4878701;29;20032;-82
2023/12/07 11:13:20;;;;;;;29.30;15.73;;;4.30;99.90;;;;;;4879288;29;20029;-84
2023/12/07 11:15:46;;;;;;;24.25;14.48;;;4.40;99.90;;;;;;4879066;29;20033;-81
2023/12/07 11:18:14;;;;;;;26.15;15.20;;;4.50;99.90;;;;;;4879073;29;20044;-84
2023/12/07 11:20:42;;;;;;;31.95;16.30;;;4.50;99.90;;;;;;4879373;29;20033;-80
2023/12/07 11:23:08;;;;;;;33.58;16.63;;;4.60;99.90;;;;;;4862557;29;20033;-82
2023/12/07 11:25:34;;;;;;;28.83;16.77;;;4.60;99.90;;;;;;4880320;29;20083;-84
2023/12/07 11:28:01;;;;;;;29.45;17.23;;;4.70;99.90;;;;;;4866055;29;20447;-81
2023/12/07 11:30:30;;;;;;;34.70;18.48;;;4.80;99.90;;;;;;4883014;29;20033;-80
2023/12/07 11:32:59;;;;;;;35.30;18.70;;;4.80;99.90;;;;;;4865737;29;20033;-84
2023/12/07 11:35:25;;;;;;;36.72;18.95;;;4.80;99.90;;;;;;4850680;29;20139;-83
2023/12/07 11:38:03;;;;;;;34.15;18.42;;;4.90;99.90;;;;;;4883355;29;20391;-83
2023/12/07 11:40:30;;;;;;;33.25;18.73;;;4.90;99.90;;;;;;4882166;29;20032;-82
2023/12/07 11:42:56;;;;;;;38.22;20.23;;;5.00;99.90;;;;;;4882681;29;20071;-81
2023/12/07 11:45:42;;;;;;;40.42;20.95;;;5.00;99.90;;;;;;4881849;29;20070;-82
2023/12/07 11:48:15;;;;;;;36.10;20.75;;;5.10;99.90;;;;;;4883452;29;20077;-75
2023/12/07 11:51:11;;;;;;;38.65;20.95;;;5.10;99.90;;;;;;4882763;29;20033;-74
2023/12/07 11:53:38;;;;;;;38.67;20.92;;;5.10;99.90;;;;;;4851770;29;20048;-76
2023/12/07 11:56:06;;;;;;;38.95;19.98;;;5.20;99.90;;;;;;4865127;29;20037;-77
2023/12/07 11:58:33;;;;;;;37.20;20.08;;;5.20;99.90;;;;;;4881486;29;20033;-77
2023/12/07 12:01:00;;;;;;;39.40;20.95;;;5.20;99.90;;;;;;4881945;29;20029;-78
2023/12/07 12:03:32;;;;;;;42.72;22.52;;;5.30;99.90;;;;;;4881722;29;20041;-79
2023/12/07 12:05:58;;;;;;;37.13;21.08;;;5.20;99.90;;;;;;4865528;29;20040;-79
2023/12/07 12:08:23;;;;;;;37.90;21.27;;;5.20;99.90;;;;;;4882057;29;20492;-78
2023/12/07 12:10:56;;;;;;;40.78;22.15;;;5.20;99.90;;;;;;4865152;29;20490;-79
2023/12/07 12:13:29;;;;;;;38.75;20.98;;;5.20;99.90;;;;;;4882064;29;20446;-79
2023/12/07 12:15:56;;;;;;;39.80;21.70;;;5.20;99.90;;;;;;4864954;29;20045;-80
2023/12/07 12:18:23;;;;;;;35.35;21.52;;;5.20;99.90;;;;;;4881635;29;20041;-80
2023/12/07 12:20:51;;;;;;;41.33;22.27;;;5.20;99.90;;;;;;4865138;29;20029;-80
2023/12/07 12:23:17;;;;;;;39.55;22.48;;;5.30;99.90;;;;;;4864830;29;20104;-80
2023/12/07 12:25:43;;;;;;;39.15;21.70;;;5.30;99.90;;;;;;4864804;29;20502;-80
2023/12/07 12:28:09;;;;;;;36.70;20.70;;;5.40;99.90;;;;;;4864874;29;20033;-81
2023/12/07 12:30:36;;;;;;;35.88;19.92;;;5.40;99.90;;;;;;4881532;29;20412;-80
2023/12/07 12:33:01;;;;;;;36.17;20.67;;;5.40;99.90;;;;;;4865049;29;20430;-80
2023/12/07 12:35:27;;;;;;;37.35;21.05;;;5.40;99.90;;;;;;4881585;29;20037;-80